PWSweather.com
Personal Weather Stations
Station Observations

OlomoucCZ

Lat: 49.5936202181, Lon: 17.2276005149

Elevation: 752

Station Type: Davis Vantage Pro 2 Activ

http://infopocasi-olomouc.cz

High Low Average
Temperature 36.3°F2.4°C 29.4°F-1.4°C 32.9°F0.5°C
Dew Point 31.8°F-0.1°C 24.6°F-4.1°C 28.6°F-1.9°C
Winds 13.8 mph 22.2 kmh 3.5 mph 5.6 kmh 8.0 mph NW12.9 kmh NW
Wind Gusts 18.4 mph29.6 kmh 4.6 mph7.4 kmh 11.0 mph17.7 kmh
Humidity 94% 76% 84%
Pressure 30.31 in1026.4 mb 30.03 in1016.9 mb -
Precipitation 0.00 in0.0 mm - -
Hour Temp Dew Point Humidity Winds Wind Gusts Pressure Precip Precip Rate Daily Precip Total
12:00 AM 35.1°F1.7°C 31.7°F-0.2°C 87% 3.5 mph WNW5.6 kmh WNW 6.9 mph11.1 kmh 30.03 in1016.9 mb - 0.00 in0.0 mm 0.00 in0.0 mm
12:30 AM 35.6°F2.0°C 31.8°F-0.1°C 86% 8.1 mph NW13.0 kmh NW 11.5 mph18.5 kmh 30.03 in1016.9 mb - 0.00 in0.0 mm 0.00 in0.0 mm
01:00 AM 36.3°F2.4°C 31.6°F-0.2°C 83% 8.1 mph NW13.0 kmh NW 11.5 mph18.5 kmh 30.04 in1017.3 mb - 0.00 in0.0 mm 0.00 in0.0 mm
01:30 AM 36.2°F2.3°C 30.6°F-0.8°C 80% 5.8 mph NW9.3 kmh NW 8.1 mph13.0 kmh 30.04 in1017.3 mb - 0.00 in0.0 mm 0.00 in0.0 mm
02:00 AM 35.8°F2.1°C 30.6°F-0.8°C 81% 6.9 mph NW11.1 kmh NW 10.4 mph16.7 kmh 30.05 in1017.6 mb - 0.00 in0.0 mm 0.00 in0.0 mm
02:30 AM 35.5°F1.9°C 30.2°F-1.0°C 81% 4.6 mph NNW7.4 kmh NNW 10.4 mph16.7 kmh 30.05 in1017.6 mb - 0.00 in0.0 mm 0.00 in0.0 mm
03:00 AM 35.5°F1.9°C 29.7°F-1.3°C 79% 5.8 mph NW9.3 kmh NW 11.5 mph18.5 kmh 30.06 in1017.9 mb - 0.00 in0.0 mm 0.00 in0.0 mm
03:30 AM 34.6°F1.4°C 30.2°F-1.0°C 84% 4.6 mph NNW7.4 kmh NNW 5.8 mph9.3 kmh 30.06 in1017.9 mb - 0.00 in0.0 mm 0.00 in0.0 mm
04:00 AM 34.1°F1.2°C 29.8°F-1.2°C 84% 6.9 mph NW11.1 kmh NW 11.5 mph18.5 kmh 30.06 in1017.9 mb - 0.00 in0.0 mm 0.00 in0.0 mm
04:30 AM 34.3°F1.3°C 29.1°F-1.6°C 81% 6.9 mph NNW11.1 kmh NNW 11.5 mph18.5 kmh 30.07 in1018.3 mb - 0.00 in0.0 mm 0.00 in0.0 mm
05:00 AM 34.2°F1.2°C 28.1°F-2.2°C 78% 12.7 mph NW20.4 kmh NW 18.4 mph29.6 kmh 30.06 in1017.9 mb - 0.00 in0.0 mm 0.00 in0.0 mm
05:30 AM 34.1°F1.2°C 27.3°F-2.6°C 76% 12.7 mph NW20.4 kmh NW 17.3 mph27.8 kmh 30.06 in1017.9 mb - 0.00 in0.0 mm 0.00 in0.0 mm
06:00 AM 34.2°F1.2°C 28.1°F-2.2°C 78% 8.1 mph NW13.0 kmh NW 15.0 mph24.1 kmh 30.08 in1018.6 mb - 0.00 in0.0 mm 0.00 in0.0 mm
06:30 AM 33.7°F0.9°C 28.5°F-1.9°C 81% 8.1 mph NW13.0 kmh NW 9.2 mph14.8 kmh 30.09 in1019.0 mb - 0.00 in0.0 mm 0.00 in0.0 mm
07:00 AM 33.5°F0.8°C 28.6°F-1.9°C 82% 5.8 mph NW9.3 kmh NW 5.8 mph9.3 kmh 30.09 in1019.0 mb - 0.00 in0.0 mm 0.00 in0.0 mm
07:30 AM 33.9°F1.1°C 27.7°F-2.4°C 78% 5.8 mph NNW9.3 kmh NNW 8.1 mph13.0 kmh 30.10 in1019.3 mb - 0.00 in0.0 mm 0.00 in0.0 mm
08:00 AM 33.0°F0.6°C 28.4°F-2.0°C 83% 3.5 mph NNW5.6 kmh NNW 4.6 mph7.4 kmh 30.12 in1020.0 mb - 0.00 in0.0 mm 0.00 in0.0 mm
08:30 AM 33.0°F0.6°C 28.7°F-1.8°C 84% 4.6 mph NNW7.4 kmh NNW 10.4 mph16.7 kmh 30.13 in1020.3 mb - 0.00 in0.0 mm 0.00 in0.0 mm
09:00 AM 33.0°F0.6°C 29.0°F-1.7°C 85% 5.8 mph NNW9.3 kmh NNW 10.4 mph16.7 kmh 30.14 in1020.7 mb - 0.00 in0.0 mm 0.00 in0.0 mm
09:30 AM 33.3°F0.7°C 29.0°F-1.7°C 84% 4.6 mph NW7.4 kmh NW 9.2 mph14.8 kmh 30.15 in1021.0 mb - 0.00 in0.0 mm 0.00 in0.0 mm
10:00 AM 33.3°F0.7°C 28.7°F-1.8°C 83% 6.9 mph NW11.1 kmh NW 11.5 mph18.5 kmh 30.15 in1021.0 mb - 0.00 in0.0 mm 0.00 in0.0 mm
10:30 AM 33.8°F1.0°C 28.3°F-2.1°C 80% 13.8 mph NW22.2 kmh NW 16.1 mph25.9 kmh 30.16 in1021.3 mb - 0.00 in0.0 mm 0.00 in0.0 mm
11:00 AM 34.1°F1.2°C 28.3°F-2.1°C 79% 11.5 mph NW18.5 kmh NW 13.8 mph22.2 kmh 30.15 in1021.0 mb - 0.00 in0.0 mm 0.00 in0.0 mm
11:30 AM 34.2°F1.2°C 27.8°F-2.3°C 77% 12.7 mph NW20.4 kmh NW 12.7 mph20.4 kmh 30.15 in1021.0 mb - 0.00 in0.0 mm 0.00 in0.0 mm
12:00 PM 34.3°F1.3°C 28.5°F-1.9°C 79% 11.5 mph NW18.5 kmh NW 11.5 mph18.5 kmh 30.16 in1021.3 mb - 0.00 in0.0 mm 0.00 in0.0 mm
12:30 PM 33.4°F0.8°C 28.8°F-1.8°C 83% 10.4 mph NW16.7 kmh NW 13.8 mph22.2 kmh 30.16 in1021.3 mb - 0.00 in0.0 mm 0.00 in0.0 mm
01:00 PM 33.3°F0.7°C 29.6°F-1.3°C 86% 5.8 mph NNW9.3 kmh NNW 11.5 mph18.5 kmh 30.17 in1021.7 mb - 0.00 in0.0 mm 0.00 in0.0 mm
01:30 PM 32.9°F0.5°C 29.5°F-1.4°C 87% 12.7 mph NNW20.4 kmh NNW 15.0 mph24.1 kmh 30.17 in1021.7 mb - 0.00 in0.0 mm 0.00 in0.0 mm
02:00 PM 32.9°F0.5°C 29.2°F-1.6°C 86% 10.4 mph NNW16.7 kmh NNW 11.5 mph18.5 kmh 30.19 in1022.4 mb - 0.00 in0.0 mm 0.00 in0.0 mm
02:30 PM 32.8°F0.4°C 29.1°F-1.6°C 86% 10.4 mph NW16.7 kmh NW 11.5 mph18.5 kmh 30.20 in1022.7 mb - 0.00 in0.0 mm 0.00 in0.0 mm
03:00 PM 32.7°F0.4°C 28.4°F-2.0°C 84% 5.8 mph NW9.3 kmh NW 11.5 mph18.5 kmh 30.20 in1022.7 mb - 0.00 in0.0 mm 0.00 in0.0 mm
03:30 PM 32.8°F0.4°C 28.2°F-2.1°C 83% 6.9 mph NW11.1 kmh NW 9.2 mph14.8 kmh 30.21 in1023.0 mb - 0.00 in0.0 mm 0.00 in0.0 mm
04:00 PM 32.3°F0.2°C 27.7°F-2.4°C 83% 9.2 mph NW14.8 kmh NW 10.4 mph16.7 kmh 30.22 in1023.4 mb - 0.00 in0.0 mm 0.00 in0.0 mm
04:30 PM 31.5°F-0.3°C 28.1°F-2.2°C 87% 5.8 mph NNW9.3 kmh NNW 8.1 mph13.0 kmh 30.23 in1023.7 mb - 0.00 in0.0 mm 0.00 in0.0 mm
05:00 PM 31.2°F-0.4°C 28.6°F-1.9°C 90% 8.1 mph NNW13.0 kmh NNW 11.5 mph18.5 kmh 30.23 in1023.7 mb - 0.00 in0.0 mm 0.00 in0.0 mm
05:30 PM 31.6°F-0.2°C 28.2°F-2.1°C 87% 5.8 mph NW9.3 kmh NW 10.4 mph16.7 kmh 30.24 in1024.0 mb - 0.00 in0.0 mm 0.00 in0.0 mm
06:00 PM 31.7°F-0.2°C 28.0°F-2.2°C 86% 8.1 mph NNW13.0 kmh NNW 9.2 mph14.8 kmh 30.25 in1024.4 mb - 0.00 in0.0 mm 0.00 in0.0 mm
06:30 PM 31.3°F-0.4°C 27.9°F-2.3°C 87% 4.6 mph NW7.4 kmh NW 4.6 mph7.4 kmh 30.25 in1024.4 mb - 0.00 in0.0 mm 0.00 in0.0 mm
07:00 PM 30.6°F-0.8°C 28.3°F-2.1°C 91% 8.1 mph NW13.0 kmh NW 11.5 mph18.5 kmh 30.26 in1024.7 mb - 0.00 in0.0 mm 0.00 in0.0 mm
07:30 PM 30.4°F-0.9°C 28.6°F-1.9°C 93% 5.8 mph NW9.3 kmh NW 8.1 mph13.0 kmh 30.26 in1024.7 mb - 0.00 in0.0 mm 0.00 in0.0 mm
08:00 PM 30.5°F-0.8°C 28.7°F-1.8°C 93% 6.9 mph NW11.1 kmh NW 10.4 mph16.7 kmh 30.27 in1025.1 mb - 0.00 in0.0 mm 0.00 in0.0 mm
08:30 PM 30.7°F-0.7°C 29.2°F-1.6°C 94% 5.8 mph NW9.3 kmh NW 13.8 mph22.2 kmh 30.27 in1025.1 mb - 0.00 in0.0 mm 0.00 in0.0 mm
09:00 PM 30.6°F-0.8°C 28.6°F-1.9°C 92% 8.1 mph NW13.0 kmh NW 11.5 mph18.5 kmh 30.28 in1025.4 mb - 0.00 in0.0 mm 0.00 in0.0 mm
09:30 PM 30.5°F-0.8°C 28.2°F-2.1°C 91% 6.9 mph NW11.1 kmh NW 10.4 mph16.7 kmh 30.29 in1025.7 mb - 0.00 in0.0 mm 0.00 in0.0 mm
10:00 PM 30.3°F-0.9°C 25.8°F-3.4°C 83% 8.1 mph N13.0 kmh N 11.5 mph18.5 kmh 30.30 in1026.1 mb - 0.00 in0.0 mm 0.00 in0.0 mm
10:30 PM 29.6°F-1.3°C 25.4°F-3.7°C 84% 5.8 mph N9.3 kmh N 9.2 mph14.8 kmh 30.30 in1026.1 mb - 0.00 in0.0 mm 0.00 in0.0 mm
11:00 PM 29.4°F-1.4°C 24.6°F-4.1°C 82% 5.8 mph N9.3 kmh N 9.2 mph14.8 kmh 30.31 in1026.4 mb - 0.00 in0.0 mm 0.00 in0.0 mm
11:30 PM 29.4°F-1.4°C 24.6°F-4.1°C 82% 9.2 mph N14.8 kmh N 10.4 mph16.7 kmh 30.31 in1026.4 mb - 0.00 in0.0 mm 0.00 in0.0 mm